Time;durP1;ratioP1;P1;durP2;ratioP2;P2;SDS_P1;SDS_P2;PMS_P1;PMS_P2;Temp;Humidity;BMP_temperature;BMP_pressure;BME280_temperature;BME280_humidity;BME280_pressure;Samples;Min_cycle;Max_cycle;Signal;HPM_P1;HPM_P2
2021/01/17 00:00:05;;;;;;;5.73;2.40;;;-5.60;99.90;;;;;;5060609;28;20323;-71
2021/01/17 00:02:31;;;;;;;5.30;2.47;;;-5.70;99.90;;;;;;5065528;28;20207;-70
2021/01/17 00:04:56;;;;;;;4.53;2.10;;;-5.60;99.90;;;;;;5061248;28;21731;-70
2021/01/17 00:07:22;;;;;;;5.10;2.40;;;-5.60;99.90;;;;;;5061084;28;20733;-71
2021/01/17 00:09:48;;;;;;;3.03;2.08;;;-5.60;99.90;;;;;;5062498;28;20292;-71
2021/01/17 00:12:14;;;;;;;5.43;2.33;;;-5.70;99.90;;;;;;5060372;28;20201;-71
2021/01/17 00:14:40;;;;;;;4.03;2.15;;;-5.60;99.90;;;;;;5061839;28;20231;-71
2021/01/17 00:17:05;;;;;;;3.65;2.30;;;-5.60;99.90;;;;;;5061613;28;20221;-70
2021/01/17 00:19:31;;;;;;;4.28;2.00;;;-5.60;99.90;;;;;;5061765;28;20796;-70
2021/01/17 00:21:57;;;;;;;4.25;2.35;;;-5.60;99.90;;;;;;5062364;28;20193;-70
2021/01/17 00:24:22;;;;;;;3.85;2.30;;;-5.60;99.90;;;;;;5062746;28;20204;-71
2021/01/17 00:26:49;;;;;;;4.43;2.40;;;-5.60;99.90;;;;;;5063427;28;20201;-70
2021/01/17 00:29:15;;;;;;;5.18;2.40;;;-5.60;99.90;;;;;;5064364;28;20246;-70
2021/01/17 00:31:41;;;;;;;6.47;2.55;;;-5.60;99.90;;;;;;5063496;28;20621;-70
2021/01/17 00:34:06;;;;;;;4.80;2.28;;;-5.60;99.90;;;;;;5062696;28;20208;-70
2021/01/17 00:36:39;;;;;;;3.87;2.10;;;-5.60;99.90;;;;;;5065228;28;20197;-70
2021/01/17 00:39:07;;;;;;;7.03;3.13;;;-5.60;99.90;;;;;;5063976;28;20203;-70
2021/01/17 00:41:33;;;;;;;6.60;2.58;;;-5.60;99.90;;;;;;5065629;28;20257;-70
2021/01/17 00:43:58;;;;;;;13.98;3.55;;;-5.60;99.90;;;;;;5066418;28;20610;-71
2021/01/17 00:46:24;;;;;;;5.30;2.50;;;-5.60;99.90;;;;;;5065718;28;20213;-71
2021/01/17 00:48:50;;;;;;;9.55;3.17;;;-5.60;99.90;;;;;;5066217;28;20686;-71
2021/01/17 00:51:16;;;;;;;9.38;2.85;;;-5.50;99.90;;;;;;5065800;28;20203;-70
2021/01/17 00:53:42;;;;;;;6.90;2.60;;;-5.50;99.90;;;;;;5071139;28;20197;-70
2021/01/17 00:56:08;;;;;;;9.85;2.53;;;-5.50;99.90;;;;;;5065643;28;20203;-71
2021/01/17 00:58:33;;;;;;;4.45;2.40;;;-5.50;99.90;;;;;;5062900;28;20200;-71
2021/01/17 01:00:59;;;;;;;6.25;2.35;;;-5.50;99.90;;;;;;5064600;28;20193;-71
2021/01/17 01:03:25;;;;;;;5.05;2.30;;;-5.50;99.90;;;;;;5063207;28;20229;-71
2021/01/17 01:05:51;;;;;;;3.45;2.17;;;-5.50;99.90;;;;;;5063102;28;20786;-71
2021/01/17 01:08:17;;;;;;;6.75;2.22;;;-5.50;99.90;;;;;;5062611;28;20205;-71
2021/01/17 01:10:43;;;;;;;3.83;2.20;;;-5.50;99.90;;;;;;5063218;28;20201;-71
2021/01/17 01:13:08;;;;;;;4.22;2.05;;;-5.50;99.90;;;;;;5063764;28;20215;-71
2021/01/17 01:15:34;;;;;;;5.60;2.20;;;-5.50;99.90;;;;;;5058442;28;20224;-71
2021/01/17 01:18:00;;;;;;;2.80;2.00;;;-5.50;99.90;;;;;;5079280;28;20207;-71
2021/01/17 01:20:26;;;;;;;2.75;1.75;;;-5.50;99.90;;;;;;5060404;28;20193;-70
2021/01/17 01:22:51;;;;;;;3.00;1.70;;;-5.50;99.90;;;;;;5062521;28;20196;-71
2021/01/17 01:25:17;;;;;;;4.32;2.22;;;-5.40;99.90;;;;;;5059735;28;20205;-71
2021/01/17 01:27:47;;;;;;;4.03;2.13;;;-5.40;99.90;;;;;;5057444;28;20894;-71
2021/01/17 01:30:13;;;;;;;4.37;2.10;;;-5.40;99.90;;;;;;5061088;28;20246;-70
2021/01/17 01:32:39;;;;;;;5.47;2.10;;;-5.40;99.90;;;;;;5060921;28;20192;-71
2021/01/17 01:35:05;;;;;;;3.10;1.83;;;-5.40;99.90;;;;;;5058707;28;20208;-70
2021/01/17 01:37:34;;;;;;;3.55;2.20;;;-5.40;99.90;;;;;;5058894;28;20192;-71
2021/01/17 01:40:00;;;;;;;3.83;1.95;;;-5.40;99.90;;;;;;5059497;28;20200;-70
2021/01/17 01:42:26;;;;;;;5.05;2.10;;;-5.40;99.90;;;;;;5060967;28;20695;-70
2021/01/17 01:44:52;;;;;;;3.13;1.83;;;-5.40;99.90;;;;;;5057810;28;20207;-71
2021/01/17 01:47:25;;;;;;;4.70;2.50;;;-5.40;99.90;;;;;;5058771;28;20193;-71
2021/01/17 01:49:52;;;;;;;2.30;1.80;;;-5.40;99.90;;;;;;5059553;28;20217;-71
2021/01/17 01:52:18;;;;;;;4.65;2.00;;;-5.40;99.90;;;;;;5058018;28;20196;-71
2021/01/17 01:54:44;;;;;;;3.17;2.08;;;-5.40;99.90;;;;;;5057025;28;20216;-71
2021/01/17 01:57:10;;;;;;;2.50;1.80;;;-5.40;99.90;;;;;;5059819;28;20213;-71
2021/01/17 01:59:37;;;;;;;3.55;2.20;;;-5.40;99.90;;;;;;5057993;28;20200;-71
2021/01/17 02:02:09;;;;;;;4.72;2.00;;;-5.40;99.90;;;;;;5062303;28;20262;-71
2021/01/17 02:04:36;;;;;;;2.75;2.00;;;-5.40;99.90;;;;;;5071103;22;20238;-71
2021/01/17 02:07:13;;;;;;;5.67;2.00;;;-5.40;99.90;;;;;;5057188;28;20597;-71
2021/01/17 02:09:40;;;;;;;3.13;1.98;;;-5.40;99.90;;;;;;5056856;28;20624;-71
2021/01/17 02:12:12;;;;;;;2.88;2.00;;;-5.30;99.90;;;;;;5058638;28;20185;-71
2021/01/17 02:14:38;;;;;;;3.42;1.95;;;-5.30;99.90;;;;;;5057601;28;20871;-72
2021/01/17 02:17:17;;;;;;;6.65;2.03;;;-5.30;99.90;;;;;;5043989;28;20197;-71
2021/01/17 02:20:06;;;;;;;5.32;1.85;;;-5.30;99.90;;;;;;5054321;28;20201;-71
2021/01/17 02:22:46;;;;;;;3.63;1.98;;;-5.20;99.90;;;;;;5041011;28;20238;-71
2021/01/17 02:25:12;;;;;;;3.55;1.85;;;-5.20;99.90;;;;;;5058826;28;20208;-71
2021/01/17 02:27:40;;;;;;;3.93;1.93;;;-5.20;99.90;;;;;;5060350;28;20220;-71
2021/01/17 02:30:10;;;;;;;2.65;1.90;;;-5.20;99.90;;;;;;5062464;28;20193;-70
2021/01/17 02:32:47;;;;;;;3.67;2.03;;;-5.10;99.90;;;;;;5062049;28;20193;-71
2021/01/17 02:35:14;;;;;;;3.40;2.00;;;-5.10;99.90;;;;;;5061102;28;20207;-71
2021/01/17 02:38:07;;;;;;;6.55;2.38;;;-5.20;99.90;;;;;;5062072;28;20200;-71
2021/01/17 02:40:42;;;;;;;6.07;2.67;;;-5.20;99.90;;;;;;5063121;28;20794;-71
2021/01/17 02:43:08;;;;;;;6.32;2.83;;;-5.10;99.90;;;;;;5046970;28;20202;-71
2021/01/17 02:45:35;;;;;;;7.25;3.00;;;-5.20;99.90;;;;;;5063832;28;20196;-71
2021/01/17 02:48:02;;;;;;;8.02;3.00;;;-5.10;99.90;;;;;;5046578;28;20192;-71
2021/01/17 02:50:27;;;;;;;6.22;3.28;;;-5.10;99.90;;;;;;5062902;28;20194;-71
2021/01/17 02:53:04;;;;;;;7.03;3.63;;;-5.10;99.90;;;;;;5045421;28;20240;-71
2021/01/17 02:55:35;;;;;;;7.05;3.10;;;-5.20;99.90;;;;;;5064214;28;20641;-71
2021/01/17 02:58:04;;;;;;;6.13;2.95;;;-5.10;99.90;;;;;;5064196;28;20201;-71
2021/01/17 03:00:33;;;;;;;5.15;2.70;;;-5.10;99.90;;;;;;5045656;28;20197;-71
2021/01/17 03:03:00;;;;;;;4.20;2.40;;;-5.10;99.90;;;;;;5043455;28;20199;-71
2021/01/17 03:05:26;;;;;;;6.18;2.78;;;-5.10;99.90;;;;;;5029158;28;20231;-71
2021/01/17 03:07:54;;;;;;;6.13;2.40;;;-5.10;99.90;;;;;;5027742;28;20197;-71
2021/01/17 03:10:21;;;;;;;4.45;2.15;;;-5.10;99.90;;;;;;5019416;28;20198;-71
2021/01/17 03:12:48;;;;;;;5.60;2.47;;;-5.10;99.90;;;;;;5028054;28;20657;-71
2021/01/17 03:15:15;;;;;;;3.33;2.15;;;-5.10;99.90;;;;;;5026500;28;20205;-71
2021/01/17 03:17:41;;;;;;;3.40;2.10;;;-5.10;99.90;;;;;;5028769;28;20198;-71
2021/01/17 03:20:07;;;;;;;4.18;2.35;;;-5.10;99.90;;;;;;5027450;28;20277;-71
2021/01/17 03:22:33;;;;;;;5.25;2.55;;;-5.10;99.90;;;;;;5030853;28;21285;-71
2021/01/17 03:24:59;;;;;;;4.70;2.65;;;-5.10;99.90;;;;;;5031438;28;20211;-71
2021/01/17 03:27:25;;;;;;;3.65;2.50;;;-5.10;99.90;;;;;;5026174;28;20203;-71
2021/01/17 03:29:51;;;;;;;6.60;2.50;;;-5.10;99.90;;;;;;5028570;28;20194;-71
2021/01/17 03:32:17;;;;;;;3.17;2.30;;;-5.10;99.90;;;;;;5029025;28;20270;-71
2021/01/17 03:34:48;;;;;;;5.10;2.50;;;-5.10;99.90;;;;;;5019479;28;20653;-72
2021/01/17 03:37:18;;;;;;;5.47;2.60;;;-5.10;99.90;;;;;;5023435;28;20992;-71
2021/01/17 03:39:44;;;;;;;5.57;2.60;;;-5.20;99.90;;;;;;5022384;28;20264;-71
2021/01/17 03:42:10;;;;;;;7.38;2.40;;;-5.20;99.90;;;;;;5026779;28;20193;-71
2021/01/17 03:44:37;;;;;;;4.75;2.38;;;-5.20;99.90;;;;;;5025564;28;20293;-71
2021/01/17 03:47:04;;;;;;;8.05;3.05;;;-5.20;99.90;;;;;;5028001;28;21082;-71
2021/01/17 03:49:29;;;;;;;10.07;4.22;;;-5.10;99.90;;;;;;5022205;28;21762;-71
2021/01/17 03:51:55;;;;;;;7.70;3.75;;;-5.10;99.90;;;;;;5026320;28;20280;-72
2021/01/17 03:54:21;;;;;;;10.27;3.13;;;-5.00;99.90;;;;;;5022015;28;20878;-71
2021/01/17 03:56:47;;;;;;;5.22;2.70;;;-5.00;99.90;;;;;;5020777;28;20264;-71
2021/01/17 03:59:16;;;;;;;3.60;2.38;;;-5.00;99.90;;;;;;5024331;28;20197;-71
2021/01/17 04:01:45;;;;;;;6.53;3.00;;;-5.00;99.90;;;;;;5026370;28;20202;-71
2021/01/17 04:04:10;;;;;;;5.75;2.67;;;-5.00;99.90;;;;;;5030014;28;20232;-71
2021/01/17 04:06:37;;;;;;;3.92;2.45;;;-5.00;99.90;;;;;;5042950;28;20208;-71
2021/01/17 04:09:06;;;;;;;8.35;3.13;;;-5.00;99.90;;;;;;5043973;28;20202;-71
2021/01/17 04:11:32;;;;;;;13.05;3.05;;;-5.00;99.90;;;;;;5046314;28;20201;-71
2021/01/17 04:13:58;;;;;;;10.88;3.10;;;-5.10;99.90;;;;;;5049258;28;20704;-71
2021/01/17 04:16:23;;;;;;;5.50;3.00;;;-5.00;99.90;;;;;;5043361;28;20939;-71
2021/01/17 04:18:49;;;;;;;7.65;2.90;;;-5.10;99.90;;;;;;5048026;28;20209;-71
2021/01/17 04:21:15;;;;;;;8.10;3.13;;;-5.10;99.90;;;;;;5021532;28;20201;-71
2021/01/17 04:23:41;;;;;;;7.15;3.33;;;-5.10;99.90;;;;;;5045792;28;20955;-71
2021/01/17 04:26:07;;;;;;;6.75;2.70;;;-5.10;99.90;;;;;;5046817;28;20209;-71
2021/01/17 04:28:33;;;;;;;6.40;2.75;;;-5.10;99.90;;;;;;5043039;28;20194;-70
2021/01/17 04:30:59;;;;;;;7.03;2.92;;;-5.10;99.90;;;;;;5046616;28;20204;-71
2021/01/17 04:33:24;;;;;;;6.75;2.97;;;-5.10;99.90;;;;;;5041298;28;20201;-71
2021/01/17 04:35:50;;;;;;;6.47;2.72;;;-5.10;99.90;;;;;;5028150;28;20201;-71
2021/01/17 04:38:16;;;;;;;5.88;2.75;;;-5.00;99.90;;;;;;5043501;28;20675;-71
2021/01/17 04:40:42;;;;;;;7.93;2.80;;;-5.00;99.90;;;;;;5046610;28;20206;-71
2021/01/17 04:43:08;;;;;;;4.53;2.60;;;-5.00;99.90;;;;;;5045573;28;20653;-71
2021/01/17 04:45:36;;;;;;;5.00;2.45;;;-4.90;99.90;;;;;;5025869;28;20202;-71
2021/01/17 04:48:03;;;;;;;5.88;2.60;;;-4.90;99.90;;;;;;5044755;28;20192;-70
2021/01/17 04:50:32;;;;;;;6.13;2.25;;;-4.90;99.90;;;;;;5024230;28;20255;-71
2021/01/17 04:53:05;;;;;;;7.90;2.58;;;-4.90;99.90;;;;;;5042253;28;20188;-71
2021/01/17 04:55:34;;;;;;;3.90;2.13;;;-4.80;99.90;;;;;;5041347;28;20625;-71
2021/01/17 04:58:15;;;;;;;4.72;2.10;;;-4.80;99.90;;;;;;5046440;28;20679;-71
2021/01/17 05:00:41;;;;;;;4.95;2.35;;;-4.80;99.90;;;;;;5043433;28;20213;-71
2021/01/17 05:03:32;;;;;;;5.03;2.75;;;-4.70;99.90;;;;;;5040712;28;20206;-71
2021/01/17 05:06:06;;;;;;;4.00;2.33;;;-4.70;99.90;;;;;;5015984;28;20233;-71
2021/01/17 05:08:33;;;;;;;3.80;2.20;;;-4.70;99.90;;;;;;4995143;28;20199;-71
2021/01/17 05:11:06;;;;;;;3.38;1.92;;;-4.70;99.90;;;;;;4996414;28;20933;-71
2021/01/17 05:13:33;;;;;;;3.53;1.90;;;-4.70;99.90;;;;;;4998047;28;20194;-71
2021/01/17 05:16:04;;;;;;;4.82;2.15;;;-4.70;99.90;;;;;;5000238;28;20225;-71
2021/01/17 05:18:30;;;;;;;3.97;2.10;;;-4.70;99.90;;;;;;4998803;28;20709;-71
2021/01/17 05:21:01;;;;;;;4.10;1.85;;;-4.70;99.90;;;;;;4995830;28;20202;-71
2021/01/17 05:23:34;;;;;;;6.18;2.40;;;-4.70;99.90;;;;;;4997023;28;20217;-71
2021/01/17 05:26:04;;;;;;;3.95;2.47;;;-4.70;99.90;;;;;;4997760;28;20711;-71
2021/01/17 05:28:32;;;;;;;5.85;2.45;;;-4.70;99.90;;;;;;4996658;28;20207;-71
2021/01/17 05:30:58;;;;;;;5.93;2.47;;;-4.70;99.90;;;;;;4997759;28;20198;-71
2021/01/17 05:33:32;;;;;;;3.85;2.40;;;-4.70;99.90;;;;;;4999567;28;20199;-71
2021/01/17 05:36:00;;;;;;;7.07;2.42;;;-4.70;99.90;;;;;;4998986;28;20677;-71
2021/01/17 05:38:26;;;;;;;6.47;2.30;;;-4.70;99.90;;;;;;4995597;28;20223;-71
2021/01/17 05:40:53;;;;;;;3.70;2.35;;;-4.60;99.90;;;;;;4999864;28;20281;-72
2021/01/17 05:43:19;;;;;;;3.53;2.13;;;-4.60;99.90;;;;;;4998704;28;20286;-72
2021/01/17 05:45:45;;;;;;;4.43;2.60;;;-4.60;99.90;;;;;;4997106;28;20250;-71
2021/01/17 05:48:11;;;;;;;3.90;2.22;;;-4.60;99.90;;;;;;5000443;28;20601;-71
2021/01/17 05:50:42;;;;;;;3.17;2.10;;;-4.60;99.90;;;;;;5008354;28;20285;-71
2021/01/17 05:53:07;;;;;;;5.80;2.28;;;-4.60;99.90;;;;;;4996635;28;20194;-71
2021/01/17 05:55:42;;;;;;;4.57;2.55;;;-4.60;99.90;;;;;;4997800;28;20202;-71
2021/01/17 05:58:25;;;;;;;7.57;3.10;;;-4.60;99.90;;;;;;4998712;28;20206;-72
2021/01/17 06:00:57;;;;;;;7.05;2.80;;;-4.60;99.90;;;;;;5001334;28;20565;-71
2021/01/17 06:03:32;;;;;;;9.25;3.17;;;-4.60;99.90;;;;;;5002169;28;20245;-72
2021/01/17 06:06:07;;;;;;;6.35;2.95;;;-4.60;99.90;;;;;;5044314;28;20224;-71
2021/01/17 06:08:34;;;;;;;4.85;2.80;;;-4.60;99.90;;;;;;5035314;28;20387;-71
2021/01/17 06:11:10;;;;;;;5.63;2.80;;;-4.60;99.90;;;;;;5053384;28;20283;-70
2021/01/17 06:13:39;;;;;;;6.80;3.00;;;-4.60;99.90;;;;;;5048726;28;21102;-71
2021/01/17 06:16:24;;;;;;;4.00;2.50;;;-4.60;99.90;;;;;;5027234;28;20206;-71
2021/01/17 06:18:58;;;;;;;9.95;3.22;;;-4.70;99.90;;;;;;5050769;28;20209;-71
2021/01/17 06:21:25;;;;;;;5.50;2.80;;;-4.60;99.90;;;;;;5047504;28;20197;-71
2021/01/17 06:24:05;;;;;;;6.13;2.70;;;-4.60;99.90;;;;;;5031256;28;20208;-71
2021/01/17 06:26:33;;;;;;;5.57;2.67;;;-4.60;99.90;;;;;;5045720;28;20205;-71
2021/01/17 06:29:00;;;;;;;5.70;2.88;;;-4.60;99.90;;;;;;5039690;28;20202;-71
2021/01/17 06:31:28;;;;;;;6.78;3.45;;;-4.60;99.90;;;;;;5033736;28;20210;-72
2021/01/17 06:34:07;;;;;;;6.47;2.97;;;-4.60;99.90;;;;;;5031236;28;21089;-71
2021/01/17 06:36:34;;;;;;;7.90;2.97;;;-4.60;99.90;;;;;;5045771;28;20239;-71
2021/01/17 06:39:00;;;;;;;7.38;2.95;;;-4.60;99.90;;;;;;5048078;28;20297;-71
2021/01/17 06:41:37;;;;;;;5.25;2.85;;;-4.70;99.90;;;;;;5049036;28;20730;-71
2021/01/17 06:44:14;;;;;;;5.15;3.20;;;-4.70;99.90;;;;;;5021153;28;20535;-71
2021/01/17 06:46:41;;;;;;;8.82;3.22;;;-4.70;99.90;;;;;;5049544;28;20204;-71
2021/01/17 06:49:24;;;;;;;6.88;2.92;;;-4.70;99.90;;;;;;5024411;28;20671;-71
2021/01/17 06:51:52;;;;;;;7.15;3.17;;;-4.60;99.90;;;;;;5046221;28;20198;-71
2021/01/17 06:54:19;;;;;;;5.97;2.92;;;-4.60;99.90;;;;;;5045183;28;20202;-71
2021/01/17 06:56:47;;;;;;;6.68;3.35;;;-4.60;99.90;;;;;;5048935;28;20213;-71
2021/01/17 06:59:13;;;;;;;5.63;3.20;;;-4.60;99.90;;;;;;5047022;28;20298;-72
2021/01/17 07:01:43;;;;;;;8.07;3.28;;;-4.60;99.90;;;;;;5048449;28;20255;-72
2021/01/17 07:04:12;;;;;;;9.85;4.07;;;-4.60;99.90;;;;;;5048691;28;20231;-72
2021/01/17 07:06:59;;;;;;;15.68;7.25;;;-4.50;99.90;;;;;;5042804;28;20217;-71
2021/01/17 07:09:36;;;;;;;17.83;7.63;;;-4.50;99.90;;;;;;5047639;28;20229;-72
2021/01/17 07:12:40;;;;;;;19.23;8.35;;;-4.50;99.90;;;;;;5038215;28;20250;-70
2021/01/17 07:15:09;;;;;;;18.67;8.38;;;-4.50;99.90;;;;;;4996710;28;20201;-70
2021/01/17 07:17:38;;;;;;;15.10;6.93;;;-4.40;99.90;;;;;;5040237;28;20275;-71
2021/01/17 07:20:09;;;;;;;11.38;5.95;;;-4.40;99.90;;;;;;5024693;28;20202;-71
2021/01/17 07:22:36;;;;;;;15.60;5.97;;;-4.50;99.90;;;;;;5025894;28;20683;-70
2021/01/17 07:25:07;;;;;;;12.60;5.53;;;-4.50;99.90;;;;;;5042117;28;20555;-70
2021/01/17 07:27:52;;;;;;;14.00;5.53;;;-4.50;99.90;;;;;;5023090;28;20220;-70
2021/01/17 07:30:32;;;;;;;11.20;4.50;;;-4.50;99.90;;;;;;5038847;28;20404;-70
2021/01/17 07:33:03;;;;;;;10.05;4.53;;;-4.50;99.90;;;;;;5041735;28;20201;-70
2021/01/17 07:35:38;;;;;;;7.07;4.03;;;-4.50;99.90;;;;;;5039661;28;20224;-70
2021/01/17 07:38:10;;;;;;;6.70;3.70;;;-4.50;99.90;;;;;;5040281;28;20193;-70
2021/01/17 07:40:50;;;;;;;7.10;4.03;;;-4.50;99.90;;;;;;5038828;28;20209;-70
2021/01/17 07:43:20;;;;;;;8.13;4.47;;;-4.50;99.90;;;;;;5043258;28;20292;-71
2021/01/17 07:45:46;;;;;;;13.18;5.13;;;-4.50;99.90;;;;;;5043040;28;20312;-71
2021/01/17 07:48:13;;;;;;;10.93;5.28;;;-4.40;99.90;;;;;;5044286;28;20272;-71
2021/01/17 07:50:42;;;;;;;11.48;6.18;;;-4.40;99.90;;;;;;5043556;28;20265;-70
2021/01/17 07:53:41;;;;;;;14.23;6.25;;;-4.30;99.90;;;;;;5036111;28;20189;-71
2021/01/17 07:56:17;;;;;;;14.65;7.07;;;-4.30;99.90;;;;;;5041111;28;20235;-70
2021/01/17 07:58:48;;;;;;;13.73;6.95;;;-4.30;99.90;;;;;;5036910;28;20244;-71
2021/01/17 08:01:33;;;;;;;15.57;7.13;;;-4.30;99.90;;;;;;5029694;28;20223;-70
2021/01/17 08:04:05;;;;;;;14.25;7.00;;;-4.30;99.90;;;;;;5043932;28;20197;-72
2021/01/17 08:06:37;;;;;;;13.23;6.68;;;-4.20;99.90;;;;;;5040331;28;20750;-72
2021/01/17 08:09:09;;;;;;;14.35;7.15;;;-4.20;99.90;;;;;;5045194;28;20308;-72
2021/01/17 08:11:49;;;;;;;29.67;8.02;;;-4.20;99.90;;;;;;5039416;28;20245;-72
2021/01/17 08:14:34;;;;;;;33.35;8.32;;;-4.10;99.90;;;;;;5042627;28;20212;-73
2021/01/17 08:17:16;;;;;;;41.45;8.90;;;-4.10;99.90;;;;;;5043682;28;20592;-72
2021/01/17 08:19:53;;;;;;;12.15;5.70;;;-4.20;99.90;;;;;;5043049;28;20282;-72
2021/01/17 08:22:22;;;;;;;16.00;6.25;;;-4.20;99.90;;;;;;5041399;28;20280;-72
2021/01/17 08:24:52;;;;;;;18.80;6.28;;;-4.20;99.90;;;;;;5040561;28;20714;-72
2021/01/17 08:27:38;;;;;;;20.40;5.68;;;-4.20;99.90;;;;;;5018812;28;20216;-72
2021/01/17 08:30:06;;;;;;;13.18;5.28;;;-4.20;99.90;;;;;;5044080;28;20777;-72
2021/01/17 08:32:38;;;;;;;15.45;5.20;;;-4.20;99.90;;;;;;5038235;28;20552;-71
2021/01/17 08:35:24;;;;;;;21.50;6.05;;;-4.10;99.90;;;;;;5023928;28;20193;-71
2021/01/17 08:37:51;;;;;;;21.42;6.15;;;-4.10;99.90;;;;;;5046386;28;20265;-72
2021/01/17 08:40:29;;;;;;;19.42;7.15;;;-4.10;99.90;;;;;;5035186;28;20292;-72
2021/01/17 08:42:57;;;;;;;21.70;7.22;;;-4.10;99.90;;;;;;5015809;28;20269;-72
2021/01/17 08:45:22;;;;;;;19.42;6.65;;;-4.00;99.90;;;;;;5039619;28;20241;-72
2021/01/17 08:47:50;;;;;;;21.58;6.78;;;-4.00;99.90;;;;;;5040400;28;20277;-72
2021/01/17 08:50:29;;;;;;;12.20;5.25;;;-4.00;99.90;;;;;;5040384;28;20248;-72
2021/01/17 08:53:12;;;;;;;10.57;4.82;;;-4.00;99.90;;;;;;5021323;28;20197;-72
2021/01/17 08:55:43;;;;;;;27.15;9.75;;;-4.00;99.90;;;;;;5025418;28;20334;-72
2021/01/17 08:58:15;;;;;;;22.92;8.20;;;-4.00;99.90;;;;;;5042883;28;20202;-72
2021/01/17 09:00:53;;;;;;;22.48;7.85;;;-4.00;99.90;;;;;;5040422;28;20195;-72
2021/01/17 09:03:30;;;;;;;26.30;9.73;;;-4.10;99.90;;;;;;5040625;28;20569;-72
2021/01/17 09:06:05;;;;;;;28.65;10.93;;;-4.10;99.90;;;;;;5045189;28;20247;-72
2021/01/17 09:08:33;;;;;;;23.27;9.52;;;-4.10;99.90;;;;;;5019553;28;20252;-72
2021/01/17 09:10:59;;;;;;;25.58;9.02;;;-4.10;99.90;;;;;;5041915;28;20188;-72
2021/01/17 09:13:27;;;;;;;37.65;12.32;;;-4.00;99.90;;;;;;5041104;28;20216;-71
2021/01/17 09:16:01;;;;;;;35.45;12.85;;;-4.00;99.90;;;;;;5042479;28;20251;-70
2021/01/17 09:18:29;;;;;;;33.95;12.52;;;-4.00;99.90;;;;;;5041224;28;20792;-73
2021/01/17 09:20:56;;;;;;;26.88;8.85;;;-3.90;99.90;;;;;;5020269;28;20220;-72
2021/01/17 09:23:23;;;;;;;26.35;10.45;;;-3.90;99.90;;;;;;5017706;28;20288;-72
2021/01/17 09:26:00;;;;;;;37.38;13.40;;;-3.80;99.90;;;;;;5040176;28;20201;-72
2021/01/17 09:28:26;;;;;;;38.65;13.18;;;-3.80;99.90;;;;;;5038211;28;20330;-72
2021/01/17 09:30:54;;;;;;;41.75;14.52;;;-3.80;99.90;;;;;;5038223;28;20208;-72
2021/01/17 09:33:20;;;;;;;34.75;12.52;;;-3.80;99.90;;;;;;5032321;28;20217;-72
2021/01/17 09:35:48;;;;;;;29.20;11.00;;;-3.80;99.90;;;;;;5014179;28;20198;-72
2021/01/17 09:38:15;;;;;;;32.88;11.52;;;-3.80;99.90;;;;;;5041633;28;20228;-72
2021/01/17 09:40:42;;;;;;;28.25;10.65;;;-3.80;99.90;;;;;;5042282;28;20209;-72
2021/01/17 09:43:08;;;;;;;24.63;9.10;;;-3.80;99.90;;;;;;5022380;28;20308;-73
2021/01/17 09:45:34;;;;;;;27.73;10.13;;;-3.80;99.90;;;;;;5040495;28;20210;-72
2021/01/17 09:48:00;;;;;;;31.20;10.50;;;-3.70;99.90;;;;;;5037970;28;21657;-71
2021/01/17 09:50:36;;;;;;;28.90;10.38;;;-3.70;99.90;;;;;;5041002;28;20201;-72
2021/01/17 09:53:09;;;;;;;25.48;9.60;;;-3.70;99.90;;;;;;5021936;28;20194;-72
2021/01/17 09:55:38;;;;;;;26.77;8.98;;;-3.60;99.90;;;;;;5042172;28;20197;-72
2021/01/17 09:58:12;;;;;;;23.75;8.82;;;-3.70;99.90;;;;;;5042284;28;20202;-71
2021/01/17 10:00:39;;;;;;;24.10;9.25;;;-3.70;99.90;;;;;;5021182;28;20664;-72
2021/01/17 10:03:12;;;;;;;19.00;7.30;;;-3.70;99.90;;;;;;5041007;28;20198;-71
2021/01/17 10:05:39;;;;;;;20.25;7.47;;;-3.70;99.90;;;;;;5040917;28;20221;-71
2021/01/17 10:08:07;;;;;;;17.83;6.57;;;-3.70;99.90;;;;;;5043578;28;21079;-71
2021/01/17 10:10:34;;;;;;;22.10;8.55;;;-3.70;99.90;;;;;;5037837;28;20197;-71
2021/01/17 10:13:00;;;;;;;33.55;13.48;;;-3.70;99.90;;;;;;5021539;28;20198;-72
2021/01/17 10:15:26;;;;;;;21.88;9.18;;;-3.70;99.90;;;;;;5038245;28;20536;-71
2021/01/17 10:17:53;;;;;;;22.13;9.15;;;-3.60;99.90;;;;;;5005788;28;20213;-71
2021/01/17 10:20:26;;;;;;;20.25;8.25;;;-3.60;99.90;;;;;;5017060;28;20757;-72
2021/01/17 10:23:00;;;;;;;17.10;6.78;;;-3.60;99.90;;;;;;5037433;28;20820;-71
2021/01/17 10:25:27;;;;;;;20.33;8.02;;;-3.50;99.90;;;;;;5036691;28;20241;-71
2021/01/17 10:28:06;;;;;;;18.50;6.68;;;-3.40;99.90;;;;;;5037441;28;20202;-71
2021/01/17 10:30:34;;;;;;;24.88;8.82;;;-3.40;99.90;;;;;;5037527;28;20228;-72
2021/01/17 10:33:03;;;;;;;21.23;8.07;;;-3.30;99.90;;;;;;5037206;28;20210;-72
2021/01/17 10:35:36;;;;;;;26.52;9.77;;;-3.20;99.90;;;;;;5038839;28;20256;-72
2021/01/17 10:38:04;;;;;;;24.45;9.52;;;-3.20;99.90;;;;;;5024216;28;20205;-72
2021/01/17 10:40:31;;;;;;;20.25;8.10;;;-3.20;99.90;;;;;;5033240;28;20237;-72
2021/01/17 10:43:00;;;;;;;25.48;9.00;;;-3.20;99.90;;;;;;5038803;28;20206;-73
2021/01/17 10:45:28;;;;;;;18.95;5.93;;;-3.20;99.90;;;;;;5041636;28;20290;-72
2021/01/17 10:48:07;;;;;;;10.02;4.47;;;-3.20;99.90;;;;;;5038929;28;20255;-72
2021/01/17 10:51:03;;;;;;;14.07;5.40;;;-3.10;99.90;;;;;;5017421;28;20573;-72
2021/01/17 10:53:38;;;;;;;13.55;5.18;;;-3.20;99.90;;;;;;5030359;28;20197;-72
2021/01/17 10:56:04;;;;;;;9.80;4.45;;;-3.10;99.90;;;;;;5043032;28;20209;-72
2021/01/17 10:58:38;;;;;;;9.85;4.70;;;-3.10;99.90;;;;;;5043625;28;20287;-72
2021/01/17 11:01:04;;;;;;;13.23;5.45;;;-3.10;99.90;;;;;;5040089;28;20252;-72
2021/01/17 11:03:31;;;;;;;47.53;10.68;;;-3.10;99.90;;;;;;5034574;28;20213;-73
2021/01/17 11:06:08;;;;;;;37.40;11.05;;;-3.10;99.90;;;;;;5011670;28;20228;-72
2021/01/17 11:08:45;;;;;;;41.22;11.82;;;-3.20;99.90;;;;;;5037947;28;20201;-72
2021/01/17 11:11:12;;;;;;;27.95;10.27;;;-3.20;99.90;;;;;;5041218;28;20548;-73
2021/01/17 11:13:38;;;;;;;18.50;7.53;;;-3.20;99.90;;;;;;5024995;28;20255;-73
2021/01/17 11:16:04;;;;;;;26.17;8.75;;;-3.20;99.90;;;;;;5037622;28;20201;-72
2021/01/17 11:18:31;;;;;;;20.50;7.78;;;-3.20;99.90;;;;;;5033312;28;20252;-72
2021/01/17 11:21:01;;;;;;;20.80;8.02;;;-3.20;99.90;;;;;;5044877;28;20193;-72
2021/01/17 11:23:28;;;;;;;24.15;10.52;;;-3.30;99.90;;;;;;5017242;28;20204;-72
2021/01/17 11:26:06;;;;;;;23.85;10.20;;;-3.20;99.90;;;;;;5035440;28;20205;-72
2021/01/17 11:28:33;;;;;;;28.52;11.93;;;-3.20;99.90;;;;;;5032038;28;20300;-72
2021/01/17 11:31:13;;;;;;;29.60;11.38;;;-3.30;99.90;;;;;;5032463;28;20212;-73
2021/01/17 11:33:39;;;;;;;30.25;11.25;;;-3.30;99.90;;;;;;5016897;28;20801;-72
2021/01/17 11:36:05;;;;;;;31.10;13.43;;;-3.20;99.90;;;;;;5039743;28;20394;-72
2021/01/17 11:38:58;;;;;;;35.15;14.48;;;-3.10;99.90;;;;;;5035677;28;20202;-72
2021/01/17 11:41:39;;;;;;;37.42;12.68;;;-3.00;99.90;;;;;;5036610;28;20868;-71
2021/01/17 11:44:19;;;;;;;41.92;14.55;;;-2.90;99.90;;;;;;5035038;28;20198;-72
2021/01/17 11:46:45;;;;;;;35.40;13.20;;;-2.80;99.90;;;;;;5035976;28;20687;-72
2021/01/17 11:49:12;;;;;;;35.35;13.90;;;-2.80;99.90;;;;;;5034386;28;20953;-72
2021/01/17 11:51:38;;;;;;;35.97;11.90;;;-2.80;99.90;;;;;;5014763;28;20198;-71
2021/01/17 11:54:12;;;;;;;34.95;12.63;;;-2.90;99.90;;;;;;5037827;28;20824;-72
2021/01/17 11:56:39;;;;;;;31.70;11.98;;;-2.90;99.90;;;;;;5033622;28;20193;-72
2021/01/17 11:59:04;;;;;;;49.83;14.10;;;-2.90;99.90;;;;;;5034545;28;20197;-72
2021/01/17 12:01:30;;;;;;;42.38;13.65;;;-2.90;99.90;;;;;;5031061;28;20220;-72
2021/01/17 12:04:22;;;;;;;43.42;15.10;;;-2.90;99.90;;;;;;5035991;28;20236;-73
2021/01/17 12:06:48;;;;;;;42.75;14.55;;;-2.90;99.90;;;;;;5037032;28;20229;-73
2021/01/17 12:09:18;;;;;;;38.67;14.95;;;-3.00;99.90;;;;;;5033721;28;20197;-72
2021/01/17 12:11:46;;;;;;;39.15;14.07;;;-2.90;99.90;;;;;;5033603;28;20190;-73
2021/01/17 12:14:13;;;;;;;42.08;14.45;;;-3.00;99.90;;;;;;5021756;28;20201;-72
2021/01/17 12:16:44;;;;;;;35.45;14.15;;;-3.00;99.90;;;;;;5017215;28;20297;-73
2021/01/17 12:19:12;;;;;;;32.70;12.48;;;-2.90;99.90;;;;;;5034409;28;20200;-72
2021/01/17 12:21:39;;;;;;;27.90;12.25;;;-3.00;99.90;;;;;;5033760;28;20206;-72
2021/01/17 12:24:07;;;;;;;27.35;11.68;;;-3.00;99.90;;;;;;5018838;28;20242;-72
2021/01/17 12:26:33;;;;;;;31.00;12.00;;;-2.90;99.90;;;;;;5037408;28;20202;-72
2021/01/17 12:28:59;;;;;;;28.15;10.75;;;-2.90;99.90;;;;;;5035704;28;20638;-72
2021/01/17 12:31:25;;;;;;;30.85;13.70;;;-2.90;99.90;;;;;;5006927;28;20288;-72
2021/01/17 12:33:52;;;;;;;26.20;11.55;;;-2.90;99.90;;;;;;5035207;28;20197;-72
2021/01/17 12:36:20;;;;;;;21.73;11.00;;;-2.90;99.90;;;;;;5034234;28;21076;-72
2021/01/17 12:38:47;;;;;;;24.95;10.45;;;-2.90;99.90;;;;;;5037177;28;20208;-72
2021/01/17 12:41:18;;;;;;;31.13;11.52;;;-2.90;99.90;;;;;;5020616;28;20220;-72
2021/01/17 12:43:46;;;;;;;28.27;11.85;;;-2.90;99.90;;;;;;5034196;28;20202;-73
2021/01/17 12:46:13;;;;;;;26.23;11.10;;;-2.80;99.90;;;;;;5032930;28;20279;-72
2021/01/17 12:48:38;;;;;;;16.83;8.10;;;-2.80;99.90;;;;;;5036534;28;20236;-72
2021/01/17 12:51:07;;;;;;;15.98;6.97;;;-2.80;99.90;;;;;;5030059;28;20237;-73
2021/01/17 12:53:34;;;;;;;18.58;7.00;;;-2.80;99.90;;;;;;5030767;28;20193;-73